Time;durP1;ratioP1;P1;durP2;ratioP2;P2;SDS_P1;SDS_P2;PMS_P1;PMS_P2;Temp;Humidity;BMP_temperature;BMP_pressure;BME280_temperature;BME280_humidity;BME280_pressure;Samples;Min_cycle;Max_cycle;Signal;HPM_P1;HPM_P2
2023/07/17 00:02:00;;;;;;;4.00;3.40;;;22.60;99.90;;;;;;4178549;28;20030;-62
2023/07/17 00:04:01;;;;;;;5.75;3.58;;;22.50;99.90;;;;;;4178853;28;20481;-63
2023/07/17 00:06:03;;;;;;;3.58;3.28;;;22.50;99.90;;;;;;4178023;28;20110;-62
2023/07/17 00:08:05;;;;;;;5.28;3.95;;;22.60;99.90;;;;;;4179238;28;20477;-63
2023/07/17 00:10:08;;;;;;;5.25;3.10;;;22.60;99.90;;;;;;4178895;28;20490;-63
2023/07/17 00:12:09;;;;;;;3.42;3.10;;;22.60;99.90;;;;;;4160550;28;20046;-63
2023/07/17 00:14:10;;;;;;;3.58;3.28;;;22.60;99.90;;;;;;4179074;28;20158;-61
2023/07/17 00:16:12;;;;;;;3.55;3.25;;;22.60;99.90;;;;;;4178578;28;20103;-63
2023/07/17 00:18:13;;;;;;;4.40;3.47;;;22.60;99.90;;;;;;4160686;28;20064;-61
2023/07/17 00:20:14;;;;;;;5.75;3.83;;;22.60;99.90;;;;;;4178249;28;20067;-62
2023/07/17 00:22:15;;;;;;;4.72;4.22;;;22.60;99.90;;;;;;4179799;28;20025;-63
2023/07/17 00:24:16;;;;;;;5.13;4.10;;;22.60;99.90;;;;;;4178217;28;20033;-62
2023/07/17 00:26:17;;;;;;;6.93;4.05;;;22.50;99.90;;;;;;4177912;28;20037;-62
2023/07/17 00:28:19;;;;;;;5.78;3.92;;;22.40;99.90;;;;;;4178148;28;20033;-61
2023/07/17 00:30:20;;;;;;;6.60;3.88;;;22.30;99.90;;;;;;4179470;28;20025;-63
2023/07/17 00:32:21;;;;;;;6.50;4.47;;;22.20;99.90;;;;;;4176987;28;20033;-62
2023/07/17 00:34:22;;;;;;;9.45;4.40;;;22.10;99.90;;;;;;4178278;28;20060;-62
2023/07/17 00:36:23;;;;;;;4.53;4.13;;;22.00;99.90;;;;;;4177560;28;20102;-61
2023/07/17 00:38:24;;;;;;;4.00;3.70;;;21.90;99.90;;;;;;4178022;28;20037;-61
2023/07/17 00:40:26;;;;;;;6.72;3.92;;;21.90;99.90;;;;;;4178483;28;20029;-62
2023/07/17 00:42:27;;;;;;;5.90;4.28;;;21.80;99.90;;;;;;4178479;28;20570;-62
2023/07/17 00:44:28;;;;;;;8.55;4.43;;;21.70;99.90;;;;;;4178843;28;20086;-62
2023/07/17 00:46:32;;;;;;;5.20;4.20;;;21.70;99.90;;;;;;4178096;28;20327;-62
2023/07/17 00:48:33;;;;;;;7.22;4.13;;;21.60;99.90;;;;;;4178992;28;20033;-63
2023/07/17 00:50:35;;;;;;;5.43;4.30;;;21.60;99.90;;;;;;4178051;28;20056;-63
2023/07/17 00:52:39;;;;;;;4.88;3.92;;;21.60;99.90;;;;;;4179330;28;20067;-62
2023/07/17 00:54:42;;;;;;;5.63;4.43;;;21.50;99.90;;;;;;4177793;28;20051;-62
2023/07/17 00:56:44;;;;;;;5.32;4.25;;;21.50;99.90;;;;;;4178954;28;20037;-63
2023/07/17 00:58:45;;;;;;;5.72;4.20;;;21.40;99.90;;;;;;4177664;28;20032;-60
2023/07/17 01:00:46;;;;;;;13.55;4.25;;;21.40;99.90;;;;;;4178804;28;20462;-63
2023/07/17 01:02:50;;;;;;;4.75;4.35;;;21.40;99.90;;;;;;4176203;28;20041;-62
2023/07/17 01:04:52;;;;;;;6.45;4.00;;;21.30;99.90;;;;;;4178866;28;20037;-62
2023/07/17 01:06:53;;;;;;;7.47;4.40;;;21.30;99.90;;;;;;4177565;28;20037;-61
2023/07/17 01:08:54;;;;;;;5.53;4.10;;;21.20;99.90;;;;;;4177807;28;20432;-62
2023/07/17 01:10:55;;;;;;;11.57;4.30;;;21.20;99.90;;;;;;4177691;28;20098;-63
2023/07/17 01:12:57;;;;;;;5.72;4.50;;;21.30;99.90;;;;;;4177860;28;20036;-62
2023/07/17 01:14:58;;;;;;;6.25;4.85;;;21.20;99.90;;;;;;4178417;28;20485;-61
2023/07/17 01:16:59;;;;;;;6.65;4.50;;;21.10;99.90;;;;;;4177278;28;20133;-63
2023/07/17 01:19:00;;;;;;;7.10;5.15;;;21.00;99.90;;;;;;4177965;28;20045;-62
2023/07/17 01:21:03;;;;;;;5.28;4.63;;;21.00;99.90;;;;;;4178088;28;20103;-61
2023/07/17 01:23:04;;;;;;;7.85;4.95;;;20.90;99.90;;;;;;4179017;28;20033;-61
2023/07/17 01:25:06;;;;;;;5.32;4.80;;;20.80;99.90;;;;;;4177796;28;20020;-62
2023/07/17 01:27:07;;;;;;;6.50;5.43;;;20.80;99.90;;;;;;4178843;28;20110;-61
2023/07/17 01:29:08;;;;;;;9.05;4.93;;;20.60;99.90;;;;;;4177601;28;20025;-62
2023/07/17 01:31:10;;;;;;;5.38;4.85;;;20.60;99.90;;;;;;4178856;28;20024;-62
2023/07/17 01:33:11;;;;;;;7.35;4.85;;;20.50;99.90;;;;;;4176497;28;20033;-62
2023/07/17 01:35:12;;;;;;;8.65;4.60;;;20.60;99.90;;;;;;4178722;28;21000;-62
2023/07/17 01:37:14;;;;;;;7.20;4.97;;;20.60;99.90;;;;;;4177357;28;20091;-63
2023/07/17 01:39:15;;;;;;;7.13;4.75;;;20.60;99.90;;;;;;4178638;28;20024;-62
2023/07/17 01:41:16;;;;;;;5.82;4.38;;;20.60;99.90;;;;;;4177530;28;20029;-61
2023/07/17 01:43:17;;;;;;;6.43;4.72;;;20.60;99.90;;;;;;4177328;28;20765;-59
2023/07/17 01:45:18;;;;;;;4.82;4.35;;;20.60;99.90;;;;;;4177873;28;20126;-62
2023/07/17 01:47:19;;;;;;;7.95;5.10;;;20.60;99.90;;;;;;4177487;28;20424;-61
2023/07/17 01:49:20;;;;;;;8.85;5.70;;;20.50;99.90;;;;;;4178111;28;20607;-62
2023/07/17 01:51:22;;;;;;;8.60;5.43;;;20.50;99.90;;;;;;4177734;28;20087;-60
2023/07/17 01:53:23;;;;;;;5.15;4.53;;;20.50;99.90;;;;;;4178294;28;20036;-63
2023/07/17 01:55:24;;;;;;;8.75;5.57;;;20.50;99.90;;;;;;4177075;28;20063;-64
2023/07/17 01:57:25;;;;;;;10.23;5.47;;;20.40;99.90;;;;;;4178260;28;20126;-60
2023/07/17 01:59:26;;;;;;;7.57;5.72;;;20.40;99.90;;;;;;4177124;28;20098;-61
2023/07/17 02:01:28;;;;;;;9.23;5.55;;;20.40;99.90;;;;;;4178315;28;20037;-62
2023/07/17 02:03:30;;;;;;;7.03;5.50;;;20.40;99.90;;;;;;4175784;28;20083;-63
2023/07/17 02:05:31;;;;;;;7.70;5.78;;;20.40;99.90;;;;;;4178217;28;20033;-62
2023/07/17 02:07:32;;;;;;;8.05;5.80;;;20.40;99.90;;;;;;4177083;28;20051;-62
2023/07/17 02:09:34;;;;;;;8.27;4.88;;;20.40;99.90;;;;;;4178204;28;20040;-62
2023/07/17 02:11:35;;;;;;;11.35;5.90;;;20.40;99.90;;;;;;4176954;28;20017;-63
2023/07/17 02:13:36;;;;;;;9.13;4.57;;;20.40;99.90;;;;;;4177110;28;20040;-62
2023/07/17 02:15:37;;;;;;;10.52;5.25;;;20.40;99.90;;;;;;4159559;28;20021;-63
2023/07/17 02:17:38;;;;;;;12.02;5.05;;;20.40;99.90;;;;;;4177065;28;20436;-64
2023/07/17 02:19:42;;;;;;;9.02;5.57;;;20.40;99.90;;;;;;4177442;28;20063;-62
2023/07/17 02:21:43;;;;;;;9.25;5.75;;;20.40;99.90;;;;;;4158700;28;20050;-63
2023/07/17 02:23:44;;;;;;;11.52;7.03;;;20.40;99.90;;;;;;4177153;28;20045;-61
2023/07/17 02:25:45;;;;;;;10.38;6.35;;;20.40;99.90;;;;;;4176767;28;20025;-66
2023/07/17 02:27:46;;;;;;;7.05;5.30;;;20.30;99.90;;;;;;4177879;28;20029;-62
2023/07/17 02:29:47;;;;;;;8.35;5.57;;;20.30;99.90;;;;;;4176533;28;20511;-61
2023/07/17 02:31:49;;;;;;;11.18;5.80;;;20.30;99.90;;;;;;4177745;28;20032;-59
2023/07/17 02:33:50;;;;;;;10.43;6.28;;;20.30;99.90;;;;;;4176397;28;20440;-65
2023/07/17 02:35:51;;;;;;;10.63;6.75;;;20.30;99.90;;;;;;4177791;28;20082;-61
2023/07/17 02:37:52;;;;;;;12.60;6.32;;;20.30;99.90;;;;;;4176431;28;20098;-61
2023/07/17 02:39:53;;;;;;;12.13;5.38;;;20.20;99.90;;;;;;4176700;28;20033;-65
2023/07/17 02:41:54;;;;;;;9.18;5.85;;;20.20;99.90;;;;;;4176200;28;20033;-63
2023/07/17 02:43:56;;;;;;;10.07;5.97;;;20.10;99.90;;;;;;4176745;28;20618;-63
2023/07/17 02:45:57;;;;;;;8.73;6.07;;;20.10;99.90;;;;;;4176612;28;20079;-62
2023/07/17 02:47:58;;;;;;;10.55;6.35;;;20.00;99.90;;;;;;4176837;28;20543;-65
2023/07/17 02:49:59;;;;;;;10.45;6.68;;;20.00;99.90;;;;;;4177018;28;20063;-63
2023/07/17 02:52:00;;;;;;;11.18;6.38;;;20.10;99.90;;;;;;4177157;28;20037;-62
2023/07/17 02:54:01;;;;;;;10.25;5.43;;;20.00;99.90;;;;;;4177401;28;20082;-62
2023/07/17 02:56:03;;;;;;;11.48;6.00;;;20.00;99.90;;;;;;4176424;28;20143;-62
2023/07/17 02:58:04;;;;;;;9.45;5.93;;;20.10;99.90;;;;;;4177493;28;20083;-62
2023/07/17 03:00:17;;;;;;;7.82;5.85;;;20.20;99.90;;;;;;4176192;28;20055;-62
2023/07/17 03:02:18;;;;;;;9.15;4.93;;;20.30;99.90;;;;;;4177313;28;20478;-62
2023/07/17 03:04:19;;;;;;;10.60;5.53;;;20.50;99.90;;;;;;4176190;28;20054;-61
2023/07/17 03:06:21;;;;;;;9.27;5.72;;;20.70;99.90;;;;;;4177555;28;20035;-62
2023/07/17 03:08:22;;;;;;;6.97;5.57;;;20.90;99.90;;;;;;4175446;28;20060;-64
2023/07/17 03:10:23;;;;;;;13.52;5.60;;;21.00;99.90;;;;;;4176832;28;20461;-61
2023/07/17 03:12:24;;;;;;;9.32;5.55;;;21.10;99.90;;;;;;4176193;28;20033;-61
2023/07/17 03:14:25;;;;;;;6.40;5.13;;;21.20;99.90;;;;;;4177476;28;20029;-63
2023/07/17 03:16:27;;;;;;;8.43;5.70;;;21.30;99.90;;;;;;4175170;28;20394;-63
2023/07/17 03:18:28;;;;;;;6.13;4.35;;;21.30;99.90;;;;;;4175965;28;20045;-64
2023/07/17 03:20:29;;;;;;;7.68;5.35;;;21.50;99.90;;;;;;4176500;28;20428;-62
2023/07/17 03:22:30;;;;;;;8.27;5.22;;;21.70;99.90;;;;;;4177201;28;20025;-62
2023/07/17 03:24:31;;;;;;;9.43;5.60;;;21.90;99.90;;;;;;4176765;28;20017;-63
2023/07/17 03:26:32;;;;;;;11.07;5.60;;;22.10;99.90;;;;;;4158572;28;20037;-63
2023/07/17 03:28:34;;;;;;;12.15;5.45;;;22.20;99.90;;;;;;4176500;28;20029;-62
2023/07/17 03:30:36;;;;;;;13.38;5.95;;;22.30;99.90;;;;;;4176166;28;20527;-62
2023/07/17 03:32:38;;;;;;;11.65;5.75;;;22.20;99.90;;;;;;4177101;28;20025;-62
2023/07/17 03:34:39;;;;;;;12.40;6.53;;;22.10;99.90;;;;;;4172292;28;20075;-62
2023/07/17 03:36:41;;;;;;;19.55;6.00;;;22.20;99.90;;;;;;4176654;28;20477;-62
2023/07/17 03:38:42;;;;;;;22.48;8.05;;;22.20;99.90;;;;;;4176019;28;20476;-63
2023/07/17 03:40:43;;;;;;;18.65;8.57;;;22.10;99.90;;;;;;4166259;28;20424;-62
2023/07/17 03:42:44;;;;;;;17.88;9.13;;;22.10;99.90;;;;;;4159136;28;20045;-62
2023/07/17 03:44:45;;;;;;;20.50;8.57;;;22.10;99.90;;;;;;4160693;28;20029;-61
2023/07/17 03:46:47;;;;;;;12.77;8.32;;;22.10;99.90;;;;;;4168312;28;20489;-67
2023/07/17 03:48:48;;;;;;;11.35;7.05;;;22.20;99.90;;;;;;4175161;28;20040;-63
2023/07/17 03:50:49;;;;;;;12.55;6.78;;;22.20;99.90;;;;;;4175878;28;20028;-61
2023/07/17 03:52:50;;;;;;;12.52;6.78;;;22.20;99.90;;;;;;4177881;28;20083;-66
2023/07/17 03:54:51;;;;;;;12.07;6.18;;;22.20;99.90;;;;;;4178632;28;20044;-63
2023/07/17 03:56:52;;;;;;;10.27;5.53;;;22.40;99.90;;;;;;4178282;28;20507;-62
2023/07/17 03:58:53;;;;;;;5.80;4.10;;;22.40;99.90;;;;;;4179696;28;20527;-62
2023/07/17 04:00:55;;;;;;;4.70;3.70;;;22.70;99.90;;;;;;4178126;28;20045;-62
2023/07/17 04:02:56;;;;;;;4.40;3.40;;;22.90;99.90;;;;;;4179668;28;20033;-63
2023/07/17 04:04:57;;;;;;;5.47;3.35;;;22.80;99.90;;;;;;4178905;28;20029;-62
2023/07/17 04:06:58;;;;;;;4.13;3.72;;;22.90;99.90;;;;;;4179244;28;20555;-62
2023/07/17 04:08:59;;;;;;;6.97;4.20;;;22.90;99.90;;;;;;4178780;28;20029;-64
2023/07/17 04:11:01;;;;;;;6.30;3.70;;;22.90;99.90;;;;;;4160636;28;20038;-61
2023/07/17 04:13:02;;;;;;;3.95;3.20;;;22.90;99.90;;;;;;4178574;28;20025;-62
2023/07/17 04:15:03;;;;;;;8.10;3.80;;;22.90;99.90;;;;;;4179588;28;20029;-61
2023/07/17 04:17:05;;;;;;;8.73;4.07;;;22.90;99.90;;;;;;4178336;28;20474;-62
2023/07/17 04:19:06;;;;;;;5.03;3.97;;;22.80;99.90;;;;;;4179511;28;20028;-61
2023/07/17 04:21:07;;;;;;;4.88;4.00;;;22.70;99.90;;;;;;4178013;28;20037;-61
2023/07/17 04:23:10;;;;;;;7.07;3.83;;;22.60;99.90;;;;;;4162875;28;20037;-61
2023/07/17 04:25:11;;;;;;;4.82;3.70;;;22.70;99.90;;;;;;4176451;28;20024;-61
2023/07/17 04:27:12;;;;;;;9.07;3.63;;;22.70;99.90;;;;;;4178421;28;20550;-60
2023/07/17 04:29:13;;;;;;;5.75;3.88;;;22.70;99.90;;;;;;4179569;28;20032;-60
2023/07/17 04:31:14;;;;;;;7.88;3.95;;;22.80;99.90;;;;;;4178366;28;20127;-60
2023/07/17 04:33:15;;;;;;;5.45;3.60;;;22.80;99.90;;;;;;4177946;28;20753;-63
2023/07/17 04:35:16;;;;;;;5.28;3.80;;;22.80;99.90;;;;;;4177630;28;20435;-62
2023/07/17 04:37:19;;;;;;;8.52;4.70;;;22.80;99.90;;;;;;4177775;28;20053;-62
2023/07/17 04:39:20;;;;;;;21.10;5.47;;;22.80;99.90;;;;;;4178255;28;20037;-61
2023/07/17 04:41:21;;;;;;;25.95;6.75;;;22.80;99.90;;;;;;4179399;28;20082;-60
2023/07/17 04:43:22;;;;;;;15.45;7.50;;;22.80;99.90;;;;;;4178191;28;20362;-63
2023/07/17 04:45:23;;;;;;;12.13;6.03;;;22.80;99.90;;;;;;4178474;28;20045;-61
2023/07/17 04:47:25;;;;;;;15.70;6.22;;;22.80;99.90;;;;;;4177393;28;20102;-62
2023/07/17 04:49:26;;;;;;;9.32;5.63;;;22.70;99.90;;;;;;4178223;28;20083;-63
2023/07/17 04:51:28;;;;;;;10.65;5.75;;;22.60;99.90;;;;;;4177514;28;20033;-63
2023/07/17 04:53:29;;;;;;;14.80;6.13;;;22.50;99.90;;;;;;4179091;28;20037;-64
2023/07/17 04:55:30;;;;;;;10.27;5.85;;;22.60;99.90;;;;;;4160208;28;20488;-61
2023/07/17 04:57:31;;;;;;;14.57;5.88;;;22.50;99.90;;;;;;4177517;28;20052;-63
2023/07/17 04:59:32;;;;;;;17.25;6.28;;;22.40;99.90;;;;;;4178497;28;20401;-64
2023/07/17 05:01:33;;;;;;;14.73;6.93;;;22.50;99.90;;;;;;4177917;28;20029;-61
2023/07/17 05:03:36;;;;;;;21.05;8.07;;;22.50;99.90;;;;;;4178283;28;20111;-61
2023/07/17 05:05:37;;;;;;;15.73;6.93;;;22.40;99.90;;;;;;4177808;28;20381;-62
2023/07/17 05:07:40;;;;;;;14.68;6.85;;;22.30;99.90;;;;;;4179002;28;20082;-62
2023/07/17 05:09:41;;;;;;;26.25;6.25;;;22.30;99.90;;;;;;4159784;28;20084;-60
2023/07/17 05:11:44;;;;;;;16.95;7.03;;;22.20;99.90;;;;;;4178278;28;20497;-63
2023/07/17 05:13:45;;;;;;;14.90;6.22;;;22.10;99.90;;;;;;4177613;28;20029;-61
2023/07/17 05:15:46;;;;;;;25.77;6.35;;;22.10;99.90;;;;;;4178772;28;20037;-62
2023/07/17 05:17:47;;;;;;;11.20;6.60;;;22.00;99.90;;;;;;4176444;28;20097;-62
2023/07/17 05:19:49;;;;;;;18.45;6.85;;;21.90;99.90;;;;;;4177673;28;20087;-60
2023/07/17 05:21:51;;;;;;;14.68;7.63;;;21.90;99.90;;;;;;4176738;28;20102;-61
2023/07/17 05:23:52;;;;;;;15.60;7.05;;;21.80;99.90;;;;;;4177813;28;20822;-63
2023/07/17 05:26:00;;;;;;;12.98;7.00;;;21.80;99.90;;;;;;4177867;28;20082;-61
2023/07/17 05:28:02;;;;;;;17.48;8.00;;;21.80;99.90;;;;;;4177984;28;20489;-64
2023/07/17 05:30:03;;;;;;;17.75;6.13;;;21.90;99.90;;;;;;4177881;28;20079;-62
2023/07/17 05:32:05;;;;;;;20.92;6.60;;;22.00;99.90;;;;;;4177679;28;20032;-64
2023/07/17 05:34:06;;;;;;;23.10;7.40;;;22.00;99.90;;;;;;4177439;28;20106;-62
2023/07/17 05:36:08;;;;;;;18.50;7.03;;;22.00;99.90;;;;;;4177199;28;20078;-61
2023/07/17 05:38:09;;;;;;;21.38;6.97;;;22.00;99.90;;;;;;4178328;28;20416;-61
2023/07/17 05:40:10;;;;;;;25.20;7.57;;;22.00;99.90;;;;;;4177183;28;20025;-62
2023/07/17 05:42:12;;;;;;;17.67;7.03;;;22.10;99.90;;;;;;4178287;28;20452;-61
2023/07/17 05:44:13;;;;;;;28.30;7.60;;;22.10;99.90;;;;;;4158634;28;20068;-62
2023/07/17 05:46:14;;;;;;;21.75;7.30;;;22.10;99.90;;;;;;4176949;28;20037;-62
2023/07/17 05:48:15;;;;;;;18.70;6.50;;;22.10;99.90;;;;;;4159043;28;20025;-63
2023/07/17 05:50:16;;;;;;;20.25;7.65;;;22.10;99.90;;;;;;4178167;28;20037;-62
2023/07/17 05:52:17;;;;;;;19.77;6.88;;;22.10;99.90;;;;;;4177100;28;20087;-61
2023/07/17 05:54:18;;;;;;;28.30;7.20;;;22.20;99.90;;;;;;4178152;28;20029;-62
2023/07/17 05:56:20;;;;;;;19.33;7.95;;;22.30;99.90;;;;;;4177104;28;20036;-62
2023/07/17 05:58:21;;;;;;;17.73;8.73;;;22.40;99.90;;;;;;4177470;28;20106;-63
2023/07/17 06:00:22;;;;;;;23.58;7.43;;;22.40;99.90;;;;;;4177387;28;20037;-62
2023/07/17 06:02:23;;;;;;;18.55;7.13;;;22.30;99.90;;;;;;4175809;28;20045;-64
2023/07/17 06:04:24;;;;;;;16.30;7.60;;;22.20;99.90;;;;;;4177702;28;20021;-63
2023/07/17 06:06:26;;;;;;;17.35;8.32;;;22.20;99.90;;;;;;4176423;28;20037;-60
2023/07/17 06:08:27;;;;;;;19.45;8.52;;;22.20;99.90;;;;;;4177758;28;20087;-61
2023/07/17 06:10:30;;;;;;;17.35;6.68;;;22.10;99.90;;;;;;4176819;28;20544;-62
2023/07/17 06:12:31;;;;;;;17.50;7.43;;;22.10;99.90;;;;;;4177825;28;20170;-62
2023/07/17 06:14:32;;;;;;;17.40;7.43;;;22.10;99.90;;;;;;4176558;28;20037;-60
2023/07/17 06:16:33;;;;;;;14.15;8.55;;;22.10;99.90;;;;;;4177383;28;20138;-62
2023/07/17 06:18:35;;;;;;;11.43;7.20;;;22.10;99.90;;;;;;4176394;28;20370;-61
2023/07/17 06:20:36;;;;;;;15.80;7.40;;;22.10;99.90;;;;;;4159755;28;20037;-62
2023/07/17 06:22:37;;;;;;;16.48;7.03;;;22.10;99.90;;;;;;4176902;28;20037;-62
2023/07/17 06:24:38;;;;;;;13.77;7.43;;;22.10;99.90;;;;;;4177843;28;20029;-63
2023/07/17 06:26:41;;;;;;;32.20;9.75;;;22.20;99.90;;;;;;4176801;28;20029;-62
2023/07/17 06:28:42;;;;;;;14.65;7.32;;;22.20;99.90;;;;;;4177386;28;20083;-62
2023/07/17 06:30:46;;;;;;;16.20;7.82;;;22.30;99.90;;;;;;4176372;28;20048;-62
2023/07/17 06:32:47;;;;;;;12.68;6.60;;;22.30;99.90;;;;;;4176930;28;20037;-60
2023/07/17 06:34:49;;;;;;;17.73;6.53;;;22.30;99.90;;;;;;4176221;28;20040;-62
2023/07/17 06:36:50;;;;;;;15.57;7.00;;;22.40;99.90;;;;;;4176632;28;20087;-62
2023/07/17 06:38:51;;;;;;;17.63;7.03;;;22.40;99.90;;;;;;4177237;28;20539;-62
2023/07/17 06:40:53;;;;;;;14.65;7.32;;;22.40;99.90;;;;;;4176237;28;20025;-62
2023/07/17 06:42:55;;;;;;;14.75;6.88;;;22.40;99.90;;;;;;4177646;28;20078;-62
2023/07/17 06:44:56;;;;;;;12.55;6.93;;;22.50;99.90;;;;;;4176574;28;20359;-62
2023/07/17 06:46:57;;;;;;;10.90;6.50;;;22.60;99.90;;;;;;4159834;28;20143;-66
2023/07/17 06:48:58;;;;;;;11.98;6.05;;;22.70;99.90;;;;;;4175504;28;20037;-61
2023/07/17 06:50:59;;;;;;;10.82;7.07;;;22.80;99.90;;;;;;4177531;28;20098;-62
2023/07/17 06:53:01;;;;;;;11.85;6.63;;;22.90;99.90;;;;;;4176082;28;20099;-62
2023/07/17 06:55:02;;;;;;;11.85;6.55;;;23.00;99.90;;;;;;4177465;28;20094;-62
2023/07/17 06:57:03;;;;;;;15.07;7.10;;;23.20;99.90;;;;;;4176154;28;20078;-66
2023/07/17 06:59:04;;;;;;;16.77;7.15;;;23.30;99.90;;;;;;4159269;28;20052;-62
2023/07/17 07:01:06;;;;;;;10.52;6.65;;;23.50;99.90;;;;;;4176598;28;20033;-67
2023/07/17 07:03:07;;;;;;;8.75;6.00;;;23.60;99.90;;;;;;4176633;28;20473;-62
2023/07/17 07:05:08;;;;;;;13.88;6.47;;;23.80;99.90;;;;;;4176892;28;20017;-62
2023/07/17 07:07:09;;;;;;;15.00;6.07;;;23.90;99.90;;;;;;4176068;28;20367;-61
2023/07/17 07:09:10;;;;;;;12.40;6.50;;;24.10;99.90;;;;;;4177272;28;20029;-60
2023/07/17 07:11:12;;;;;;;12.13;5.60;;;24.60;99.90;;;;;;4175311;28;20041;-63
2023/07/17 07:13:13;;;;;;;9.18;6.22;;;25.00;99.90;;;;;;4176442;28;20440;-62
2023/07/17 07:15:14;;;;;;;15.52;5.65;;;25.50;99.90;;;;;;4176213;28;20067;-62
2023/07/17 07:17:15;;;;;;;10.80;6.35;;;25.50;99.90;;;;;;4176334;28;20087;-62
2023/07/17 07:19:16;;;;;;;10.45;6.05;;;25.50;99.90;;;;;;4176058;28;20086;-62
2023/07/17 07:21:17;;;;;;;9.95;5.40;;;25.40;99.90;;;;;;4177314;28;20071;-62
2023/07/17 07:23:19;;;;;;;9.43;5.35;;;25.50;99.90;;;;;;4176770;28;20485;-61
2023/07/17 07:25:21;;;;;;;12.70;5.72;;;25.50;99.90;;;;;;4177352;28;20021;-61
2023/07/17 07:27:22;;;;;;;9.40;6.15;;;25.80;99.90;;;;;;4177460;28;20037;-62
2023/07/17 07:29:24;;;;;;;14.95;6.45;;;26.00;99.90;;;;;;4180151;28;20037;-67
2023/07/17 07:31:25;;;;;;;9.73;5.35;;;26.00;99.90;;;;;;4179457;28;21340;-66
2023/07/17 07:33:26;;;;;;;15.10;6.40;;;26.10;99.90;;;;;;4179303;28;20083;-60
2023/07/17 07:35:27;;;;;;;6.95;5.40;;;26.30;99.90;;;;;;4179519;28;20535;-64
2023/07/17 07:37:28;;;;;;;13.70;5.57;;;26.50;99.90;;;;;;4178332;28;20547;-62
2023/07/17 07:39:29;;;;;;;9.23;5.93;;;26.60;99.90;;;;;;4180093;28;20033;-63
2023/07/17 07:41:35;;;;;;;8.63;5.25;;;26.60;99.90;;;;;;4179275;28;20124;-61
2023/07/17 07:43:36;;;;;;;10.90;5.35;;;26.60;99.90;;;;;;4180207;28;20531;-60
2023/07/17 07:45:37;;;;;;;10.65;5.32;;;26.70;99.90;;;;;;4178991;28;20044;-63
2023/07/17 07:47:39;;;;;;;9.48;5.38;;;26.70;99.90;;;;;;4179150;28;20118;-63
2023/07/17 07:49:40;;;;;;;7.05;5.60;;;26.90;99.90;;;;;;4178799;28;20354;-61
2023/07/17 07:51:42;;;;;;;5.63;5.05;;;27.10;99.90;;;;;;4179847;28;20090;-63
2023/07/17 07:53:43;;;;;;;5.82;5.00;;;27.30;99.90;;;;;;4178942;28;20194;-67
2023/07/17 07:55:44;;;;;;;8.43;5.35;;;27.50;99.90;;;;;;4161718;28;20033;-64
2023/07/17 07:57:45;;;;;;;10.63;5.38;;;27.40;99.90;;;;;;4178399;28;20508;-62
2023/07/17 07:59:46;;;;;;;15.25;5.85;;;27.30;99.90;;;;;;4179835;28;20075;-62
2023/07/17 08:01:47;;;;;;;7.00;5.40;;;27.40;99.90;;;;;;4178673;28;20500;-63
2023/07/17 08:03:48;;;;;;;12.57;5.30;;;27.40;99.90;;;;;;4179461;28;20029;-62
2023/07/17 08:05:50;;;;;;;10.07;5.13;;;27.50;99.90;;;;;;4179087;28;20033;-61
2023/07/17 08:07:51;;;;;;;9.57;5.70;;;27.40;99.90;;;;;;4178454;28;20098;-65
2023/07/17 08:09:52;;;;;;;6.55;5.18;;;27.50;99.90;;;;;;4161573;28;20033;-61
2023/07/17 08:11:53;;;;;;;7.25;4.93;;;27.70;99.90;;;;;;4178601;28;20446;-60
2023/07/17 08:13:54;;;;;;;10.27;5.00;;;27.70;99.90;;;;;;4178997;28;20110;-61
2023/07/17 08:15:56;;;;;;;6.00;4.95;;;27.80;99.90;;;;;;4178511;28;20047;-62
2023/07/17 08:17:57;;;;;;;6.07;4.80;;;27.90;99.90;;;;;;4178187;28;20115;-61
2023/07/17 08:19:58;;;;;;;7.22;4.65;;;28.00;99.90;;;;;;4178426;28;20431;-62
2023/07/17 08:21:59;;;;;;;5.38;4.65;;;27.90;99.90;;;;;;4179426;28;20025;-61
2023/07/17 08:24:01;;;;;;;10.48;4.90;;;27.80;99.90;;;;;;4178828;28;20448;-64
2023/07/17 08:26:02;;;;;;;5.22;4.72;;;27.90;99.90;;;;;;4178650;28;20477;-66
2023/07/17 08:28:03;;;;;;;5.60;4.93;;;28.10;99.90;;;;;;4177274;28;20033;-62
2023/07/17 08:30:05;;;;;;;7.15;5.53;;;28.40;99.90;;;;;;4161782;28;20033;-62
2023/07/17 08:32:06;;;;;;;7.65;4.97;;;28.70;99.90;;;;;;4178274;28;20024;-62
2023/07/17 08:34:07;;;;;;;10.57;4.70;;;28.80;99.90;;;;;;4177955;28;20053;-63
2023/07/17 08:36:08;;;;;;;6.82;5.10;;;28.90;99.90;;;;;;4178668;28;20029;-61
2023/07/17 08:38:10;;;;;;;5.35;4.60;;;28.90;99.90;;;;;;4177727;28;20041;-61
2023/07/17 08:40:11;;;;;;;6.18;4.80;;;28.70;99.90;;;;;;4178884;28;20107;-61
2023/07/17 08:42:13;;;;;;;6.53;4.70;;;28.80;99.90;;;;;;4178136;28;20098;-61
2023/07/17 08:44:18;;;;;;;7.85;4.95;;;29.20;99.90;;;;;;4178120;28;20048;-62
2023/07/17 08:46:19;;;;;;;5.78;4.60;;;29.50;99.90;;;;;;4178126;28;20503;-61
2023/07/17 08:48:21;;;;;;;5.07;4.68;;;29.60;99.90;;;;;;4178116;28;20452;-62
2023/07/17 08:50:24;;;;;;;4.82;4.30;;;29.60;99.90;;;;;;4177935;28;20021;-63
2023/07/17 08:52:27;;;;;;;9.45;4.70;;;29.50;99.90;;;;;;4178301;28;20366;-64
2023/07/17 08:54:28;;;;;;;6.22;4.72;;;29.50;99.90;;;;;;4178243;28;20025;-61
2023/07/17 08:56:30;;;;;;;6.97;4.82;;;29.50;99.90;;;;;;4179115;28;20087;-61
2023/07/17 08:58:31;;;;;;;5.20;4.25;;;29.60;99.90;;;;;;4177823;28;20458;-61
2023/07/17 09:00:32;;;;;;;4.65;4.18;;;29.50;99.90;;;;;;4179015;28;20447;-62
2023/07/17 09:02:34;;;;;;;8.50;3.90;;;29.50;99.90;;;;;;4177327;28;20025;-61
2023/07/17 09:04:35;;;;;;;6.50;4.68;;;29.60;99.90;;;;;;4177839;28;20040;-64
2023/07/17 09:06:36;;;;;;;11.15;4.80;;;29.70;99.90;;;;;;4177068;28;20033;-61
2023/07/17 09:08:37;;;;;;;6.72;4.40;;;29.70;99.90;;;;;;4178327;28;20029;-62
2023/07/17 09:10:39;;;;;;;6.43;4.65;;;29.70;99.90;;;;;;4177981;28;20021;-61
2023/07/17 09:12:48;;;;;;;6.13;4.10;;;29.70;99.90;;;;;;4159440;28;20037;-61
2023/07/17 09:14:49;;;;;;;5.65;4.72;;;29.70;99.90;;;;;;4178185;28;20082;-62
2023/07/17 09:17:00;;;;;;;15.98;6.22;;;29.50;99.90;;;;;;4176690;28;20025;-60
2023/07/17 09:19:02;;;;;;;6.78;4.50;;;29.30;99.90;;;;;;4177498;28;20053;-62
2023/07/17 09:21:03;;;;;;;7.45;5.05;;;29.30;99.90;;;;;;4177587;28;20029;-61
2023/07/17 09:23:04;;;;;;;5.32;4.45;;;29.30;99.90;;;;;;4178132;28;20053;-62
2023/07/17 09:25:06;;;;;;;7.30;4.78;;;29.30;99.90;;;;;;4177755;28;20515;-63
2023/07/17 09:27:08;;;;;;;6.05;4.32;;;29.40;99.90;;;;;;4177785;28;20079;-62
2023/07/17 09:29:09;;;;;;;9.05;5.00;;;29.60;99.90;;;;;;4176449;28;20079;-62
2023/07/17 09:31:10;;;;;;;4.63;4.22;;;29.70;99.90;;;;;;4177498;28;20440;-63
2023/07/17 09:33:11;;;;;;;5.93;4.50;;;29.80;99.90;;;;;;4176906;28;20098;-61
2023/07/17 09:35:13;;;;;;;6.75;4.63;;;29.80;99.90;;;;;;4178226;28;20029;-62
2023/07/17 09:37:15;;;;;;;5.45;4.45;;;29.70;99.90;;;;;;4159230;28;20033;-61
2023/07/17 09:39:16;;;;;;;5.22;4.72;;;29.70;99.90;;;;;;4178283;28;20040;-62
2023/07/17 09:41:23;;;;;;;8.05;4.75;;;29.60;99.90;;;;;;4177121;28;20082;-62
2023/07/17 09:43:31;;;;;;;4.68;4.18;;;29.60;99.90;;;;;;4178082;28;20078;-62
2023/07/17 09:45:33;;;;;;;5.70;5.00;;;29.80;99.90;;;;;;4177134;28;20021;-61
2023/07/17 09:47:35;;;;;;;6.30;5.35;;;29.80;99.90;;;;;;4177645;28;20086;-62
2023/07/17 09:49:37;;;;;;;6.28;4.78;;;29.70;99.90;;;;;;4176223;28;20111;-60
2023/07/17 09:51:38;;;;;;;8.68;5.55;;;29.70;99.90;;;;;;4177528;28;20436;-61
2023/07/17 09:53:41;;;;;;;7.18;5.25;;;29.80;99.90;;;;;;4178127;28;20033;-62
2023/07/17 09:55:44;;;;;;;9.48;6.70;;;29.90;99.90;;;;;;4176996;28;20075;-61
2023/07/17 09:57:45;;;;;;;11.98;7.75;;;30.10;99.90;;;;;;4177814;28;20037;-61
2023/07/17 09:59:49;;;;;;;7.00;6.30;;;30.30;99.90;;;;;;4176789;28;20415;-61
2023/07/17 10:01:55;;;;;;;9.85;8.13;;;30.30;99.90;;;;;;4177854;28;20090;-61
2023/07/17 10:04:03;;;;;;;10.02;7.30;;;30.40;99.90;;;;;;4176797;28;20154;-65
2023/07/17 10:06:05;;;;;;;8.65;7.15;;;30.50;99.90;;;;;;4177611;28;20037;-63
2023/07/17 10:08:07;;;;;;;13.05;7.80;;;30.30;99.90;;;;;;4176731;28;20453;-65
2023/07/17 10:10:10;;;;;;;11.43;8.07;;;30.30;99.90;;;;;;4177862;28;20025;-62
2023/07/17 10:12:11;;;;;;;9.20;8.27;;;30.60;99.90;;;;;;4176506;28;20122;-62
2023/07/17 10:14:14;;;;;;;9.95;7.97;;;30.70;99.90;;;;;;4177629;28;20496;-62
2023/07/17 10:16:18;;;;;;;10.18;8.23;;;30.70;99.90;;;;;;4176503;28;20078;-61
2023/07/17 10:18:23;;;;;;;8.23;7.07;;;30.80;99.90;;;;;;4177488;28;20033;-63
2023/07/17 10:20:25;;;;;;;8.18;6.57;;;30.80;99.90;;;;;;4176808;28;20025;-62
2023/07/17 10:22:45;;;;;;;7.35;5.97;;;30.80;99.90;;;;;;4177719;28;20099;-62
2023/07/17 10:24:47;;;;;;;;;;;30.90;99.90;;;;;;4177495;28;20070;-64
2023/07/17 10:26:49;;;;;;;9.95;5.80;;;30.90;99.90;;;;;;4177505;28;19959;-62
2023/07/17 10:28:53;;;;;;;5.85;5.35;;;30.90;99.90;;;;;;4175762;28;20041;-63
2023/07/17 10:30:54;;;;;;;5.75;5.22;;;30.90;99.90;;;;;;4177140;28;20025;-61